sensor_id;sensor_type;location;lat;lon;timestamp;pressure;altitude;pressure_sealevel;temperature;humidity
48862;BME280;34681;49.188;-0.374;2023-05-11T00:01:52;101440.47;;;17.02;nan
48862;BME280;34681;49.188;-0.374;2023-05-11T00:04:18;101444.94;;;16.87;nan
48862;BME280;34681;49.188;-0.374;2023-05-11T00:06:43;101447.41;;;16.98;nan
48862;BME280;34681;49.188;-0.374;2023-05-11T00:09:08;101438.22;;;16.81;nan
48862;BME280;34681;49.188;-0.374;2023-05-11T00:11:35;101443.91;;;16.96;nan
48862;BME280;34681;49.188;-0.374;2023-05-11T00:14:00;101439.97;;;16.99;nan
48862;BME280;34681;49.188;-0.374;2023-05-11T00:16:26;101432.53;;;16.99;nan
48862;BME280;34681;49.188;-0.374;2023-05-11T00:18:51;101430.81;;;16.90;nan
48862;BME280;34681;49.188;-0.374;2023-05-11T00:21:16;101433.56;;;16.98;nan
48862;BME280;34681;49.188;-0.374;2023-05-11T00:23:42;101436.84;;;16.94;nan
48862;BME280;34681;49.188;-0.374;2023-05-11T00:26:07;101437.72;;;17.02;nan
48862;BME280;34681;49.188;-0.374;2023-05-11T00:28:33;101429.41;;;16.94;nan
48862;BME280;34681;49.188;-0.374;2023-05-11T00:30:58;101431.84;;;16.97;nan
48862;BME280;34681;49.188;-0.374;2023-05-11T00:33:23;101424.75;;;16.95;nan
48862;BME280;34681;49.188;-0.374;2023-05-11T00:35:49;101424.75;;;16.95;nan
48862;BME280;34681;49.188;-0.374;2023-05-11T00:38:15;101423.56;;;16.97;nan
48862;BME280;34681;49.188;-0.374;2023-05-11T00:40:40;101419.72;;;16.74;nan
48862;BME280;34681;49.188;-0.374;2023-05-11T00:43:06;101425.28;;;16.90;nan
48862;BME280;34681;49.188;-0.374;2023-05-11T00:45:31;101419.75;;;16.82;nan
48862;BME280;34681;49.188;-0.374;2023-05-11T00:47:57;101424.03;;;16.76;nan
48862;BME280;34681;49.188;-0.374;2023-05-11T00:50:23;101422.50;;;16.90;nan
48862;BME280;34681;49.188;-0.374;2023-05-11T00:52:49;101423.69;;;16.79;nan
48862;BME280;34681;49.188;-0.374;2023-05-11T00:55:15;101420.78;;;16.73;nan
48862;BME280;34681;49.188;-0.374;2023-05-11T00:57:43;101421.81;;;16.72;nan
48862;BME280;34681;49.188;-0.374;2023-05-11T01:00:09;101424.22;;;16.83;nan
48862;BME280;34681;49.188;-0.374;2023-05-11T01:02:34;101421.75;;;16.55;nan
48862;BME280;34681;49.188;-0.374;2023-05-11T01:05:00;101424.50;;;16.47;nan
48862;BME280;34681;49.188;-0.374;2023-05-11T01:07:41;101425.66;;;16.45;nan
48862;BME280;34681;49.188;-0.374;2023-05-11T01:13:17;101422.44;;;16.66;nan
48862;BME280;34681;49.188;-0.374;2023-05-11T01:15:50;101420.53;;;16.66;nan
48862;BME280;34681;49.188;-0.374;2023-05-11T01:18:28;101417.56;;;16.51;nan
48862;BME280;34681;49.188;-0.374;2023-05-11T01:20:59;101418.25;;;16.45;nan
48862;BME280;34681;49.188;-0.374;2023-05-11T01:26:44;101425.38;;;16.64;nan
48862;BME280;34681;49.188;-0.374;2023-05-11T01:32:25;101415.97;;;16.24;nan
48862;BME280;34681;49.188;-0.374;2023-05-11T01:35:02;101420.28;;;16.35;nan
48862;BME280;34681;49.188;-0.374;2023-05-11T01:37:30;101416.53;;;16.44;nan
48862;BME280;34681;49.188;-0.374;2023-05-11T01:39:57;101419.09;;;16.46;nan
48862;BME280;34681;49.188;-0.374;2023-05-11T01:42:29;101425.88;;;16.51;nan
48862;BME280;34681;49.188;-0.374;2023-05-11T01:44:56;101424.50;;;16.47;nan
48862;BME280;34681;49.188;-0.374;2023-05-11T01:47:25;101425.13;;;16.33;nan
48862;BME280;34681;49.188;-0.374;2023-05-11T01:49:53;101425.44;;;16.30;nan
48862;BME280;34681;49.188;-0.374;2023-05-11T01:52:22;101427.75;;;16.43;nan
48862;BME280;34681;49.188;-0.374;2023-05-11T01:54:50;101425.47;;;16.38;nan
48862;BME280;34681;49.188;-0.374;2023-05-11T01:57:17;101422.94;;;16.53;nan
48862;BME280;34681;49.188;-0.374;2023-05-11T01:59:44;101423.81;;;16.62;nan
48862;BME280;34681;49.188;-0.374;2023-05-11T02:02:10;101428.97;;;16.48;nan
48862;BME280;34681;49.188;-0.374;2023-05-11T02:04:37;101426.72;;;16.52;nan
48862;BME280;34681;49.188;-0.374;2023-05-11T02:07:05;101429.84;;;16.57;nan
48862;BME280;34681;49.188;-0.374;2023-05-11T02:09:32;101431.22;;;16.53;nan
48862;BME280;34681;49.188;-0.374;2023-05-11T02:11:59;101436.75;;;16.61;nan
48862;BME280;34681;49.188;-0.374;2023-05-11T02:14:27;101423.47;;;16.56;nan
48862;BME280;34681;49.188;-0.374;2023-05-11T02:16:58;101429.84;;;16.57;nan
48862;BME280;34681;49.188;-0.374;2023-05-11T02:19:24;101418.97;;;16.55;nan
48862;BME280;34681;49.188;-0.374;2023-05-11T02:21:52;101435.84;;;16.36;nan
48862;BME280;34681;49.188;-0.374;2023-05-11T02:24:18;101433.97;;;16.45;nan
48862;BME280;34681;49.188;-0.374;2023-05-11T02:26:45;101433.81;;;16.54;nan
48862;BME280;34681;49.188;-0.374;2023-05-11T02:29:10;101430.34;;;16.52;nan
48862;BME280;34681;49.188;-0.374;2023-05-11T02:31:40;101442.59;;;16.42;nan
48862;BME280;34681;49.188;-0.374;2023-05-11T02:34:17;101434.66;;;16.39;nan
48862;BME280;34681;49.188;-0.374;2023-05-11T02:36:47;101440.84;;;16.33;nan
48862;BME280;34681;49.188;-0.374;2023-05-11T02:39:16;101436.84;;;16.27;nan
48862;BME280;34681;49.188;-0.374;2023-05-11T02:41:48;101437.78;;;16.52;nan
48862;BME280;34681;49.188;-0.374;2023-05-11T02:44:16;101437.72;;;16.36;nan
48862;BME280;34681;49.188;-0.374;2023-05-11T02:46:46;101435.50;;;16.31;nan
48862;BME280;34681;49.188;-0.374;2023-05-11T02:49:14;101438.91;;;16.25;nan
48862;BME280;34681;49.188;-0.374;2023-05-11T02:51:43;101439.56;;;16.19;nan
48862;BME280;34681;49.188;-0.374;2023-05-11T02:54:10;101434.03;;;16.19;nan
48862;BME280;34681;49.188;-0.374;2023-05-11T02:56:37;101439.44;;;16.28;nan
48862;BME280;34681;49.188;-0.374;2023-05-11T02:59:03;101438.75;;;16.35;nan
48862;BME280;34681;49.188;-0.374;2023-05-11T03:01:29;101435.31;;;16.33;nan
48862;BME280;34681;49.188;-0.374;2023-05-11T03:03:54;101432.75;;;16.39;nan
48862;BME280;34681;49.188;-0.374;2023-05-11T03:06:20;101433.41;;;16.33;nan
48862;BME280;34681;49.188;-0.374;2023-05-11T03:08:45;101428.06;;;16.32;nan
48862;BME280;34681;49.188;-0.374;2023-05-11T03:11:12;101419.91;;;16.30;nan
48862;BME280;34681;49.188;-0.374;2023-05-11T03:13:41;101427.50;;;16.20;nan
48862;BME280;34681;49.188;-0.374;2023-05-11T03:16:08;101424.59;;;16.29;nan
48862;BME280;34681;49.188;-0.374;2023-05-11T03:18:34;101418.75;;;16.33;nan
48862;BME280;34681;49.188;-0.374;2023-05-11T03:21:00;101424.09;;;16.34;nan
48862;BME280;34681;49.188;-0.374;2023-05-11T03:23:27;101431.50;;;16.34;nan
48862;BME280;34681;49.188;-0.374;2023-05-11T03:25:53;101424.97;;;16.35;nan
48862;BME280;34681;49.188;-0.374;2023-05-11T03:28:21;101422.56;;;16.40;nan
48862;BME280;34681;49.188;-0.374;2023-05-11T03:30:49;101430.09;;;16.29;nan
48862;BME280;34681;49.188;-0.374;2023-05-11T03:33:16;101430.63;;;16.25;nan
48862;BME280;34681;49.188;-0.374;2023-05-11T03:35:42;101432.22;;;16.36;nan
48862;BME280;34681;49.188;-0.374;2023-05-11T03:38:09;101423.00;;;16.19;nan
48862;BME280;34681;49.188;-0.374;2023-05-11T03:40:36;101430.97;;;16.22;nan
48862;BME280;34681;49.188;-0.374;2023-05-11T03:43:02;101426.31;;;16.22;nan
48862;BME280;34681;49.188;-0.374;2023-05-11T03:45:30;101419.88;;;16.06;nan
48862;BME280;34681;49.188;-0.374;2023-05-11T03:47:58;101416.09;;;16.15;nan
48862;BME280;34681;49.188;-0.374;2023-05-11T03:50:26;101409.16;;;16.11;nan
48862;BME280;34681;49.188;-0.374;2023-05-11T03:52:51;101404.91;;;15.82;nan
48862;BME280;34681;49.188;-0.374;2023-05-11T03:55:17;101408.03;;;15.87;nan
48862;BME280;34681;49.188;-0.374;2023-05-11T03:57:43;101412.91;;;15.93;nan
48862;BME280;34681;49.188;-0.374;2023-05-11T04:00:09;101402.19;;;15.90;nan
48862;BME280;34681;49.188;-0.374;2023-05-11T04:02:35;101405.59;;;15.84;nan
48862;BME280;34681;49.188;-0.374;2023-05-11T04:05:06;101407.00;;;15.88;nan
48862;BME280;34681;49.188;-0.374;2023-05-11T04:07:31;101406.13;;;15.88;nan
48862;BME280;34681;49.188;-0.374;2023-05-11T04:09:57;101408.72;;;15.81;nan
48862;BME280;34681;49.188;-0.374;2023-05-11T04:12:22;101409.56;;;15.82;nan
48862;BME280;34681;49.188;-0.374;2023-05-11T04:14:47;101407.97;;;15.53;nan
48862;BME280;34681;49.188;-0.374;2023-05-11T04:17:13;101409.66;;;15.64;nan
48862;BME280;34681;49.188;-0.374;2023-05-11T04:19:38;101410.56;;;15.72;nan
48862;BME280;34681;49.188;-0.374;2023-05-11T04:22:03;101411.44;;;15.73;nan
48862;BME280;34681;49.188;-0.374;2023-05-11T04:24:29;101406.25;;;15.78;nan
48862;BME280;34681;49.188;-0.374;2023-05-11T04:26:55;101411.78;;;15.78;nan
48862;BME280;34681;49.188;-0.374;2023-05-11T04:29:21;101412.59;;;15.70;nan
48862;BME280;34681;49.188;-0.374;2023-05-11T04:31:46;101415.53;;;15.69;nan
48862;BME280;34681;49.188;-0.374;2023-05-11T04:34:11;101413.28;;;15.64;nan
48862;BME280;34681;49.188;-0.374;2023-05-11T04:36:36;101419.31;;;15.68;nan
48862;BME280;34681;49.188;-0.374;2023-05-11T04:39:02;101417.28;;;15.52;nan
48862;BME280;34681;49.188;-0.374;2023-05-11T04:41:28;101405.91;;;15.73;nan
48862;BME280;34681;49.188;-0.374;2023-05-11T04:43:53;101406.22;;;15.70;nan
48862;BME280;34681;49.188;-0.374;2023-05-11T04:46:19;101408.50;;;15.75;nan
48862;BME280;34681;49.188;-0.374;2023-05-11T04:48:44;101400.41;;;15.73;nan
48862;BME280;34681;49.188;-0.374;2023-05-11T04:51:10;101410.97;;;15.86;nan
48862;BME280;34681;49.188;-0.374;2023-05-11T04:53:35;101406.84;;;15.90;nan
48862;BME280;34681;49.188;-0.374;2023-05-11T04:56:00;101413.38;;;15.81;nan
48862;BME280;34681;49.188;-0.374;2023-05-11T04:58:26;101412.38;;;15.90;nan
48862;BME280;34681;49.188;-0.374;2023-05-11T05:00:51;101423.06;;;15.93;nan
48862;BME280;34681;49.188;-0.374;2023-05-11T05:03:16;101420.75;;;16.14;nan
48862;BME280;34681;49.188;-0.374;2023-05-11T05:05:42;101421.06;;;16.11;nan
48862;BME280;34681;49.188;-0.374;2023-05-11T05:08:07;101424.41;;;16.23;nan
48862;BME280;34681;49.188;-0.374;2023-05-11T05:10:32;101425.47;;;16.38;nan
48862;BME280;34681;49.188;-0.374;2023-05-11T05:12:58;101430.59;;;16.17;nan
48862;BME280;34681;49.188;-0.374;2023-05-11T05:15:23;101429.41;;;16.27;nan
48862;BME280;34681;49.188;-0.374;2023-05-11T05:17:49;101440.44;;;16.19;nan
48862;BME280;34681;49.188;-0.374;2023-05-11T05:20:14;101433.13;;;16.52;nan
48862;BME280;34681;49.188;-0.374;2023-05-11T05:22:39;101442.00;;;16.72;nan
48862;BME280;34681;49.188;-0.374;2023-05-11T05:25:06;101442.34;;;16.77;nan
48862;BME280;34681;49.188;-0.374;2023-05-11T05:27:32;101441.16;;;16.96;nan
48862;BME280;34681;49.188;-0.374;2023-05-11T05:29:57;101449.13;;;17.07;nan
48862;BME280;34681;49.188;-0.374;2023-05-11T05:32:22;101450.50;;;17.03;nan
48862;BME280;34681;49.188;-0.374;2023-05-11T05:34:48;101446.69;;;17.21;nan
48862;BME280;34681;49.188;-0.374;2023-05-11T05:37:13;101458.13;;;17.26;nan
48862;BME280;34681;49.188;-0.374;2023-05-11T05:39:38;101450.84;;;17.49;nan
48862;BME280;34681;49.188;-0.374;2023-05-11T05:42:04;101457.56;;;17.79;nan
48862;BME280;34681;49.188;-0.374;2023-05-11T05:44:29;101459.44;;;17.87;nan
48862;BME280;34681;49.188;-0.374;2023-05-11T05:46:55;101455.94;;;17.93;nan
48862;BME280;34681;49.188;-0.374;2023-05-11T05:49:20;101447.34;;;17.88;nan
48862;BME280;34681;49.188;-0.374;2023-05-11T05:51:45;101459.78;;;17.92;nan
48862;BME280;34681;49.188;-0.374;2023-05-11T05:54:11;101453.34;;;18.00;nan
48862;BME280;34681;49.188;-0.374;2023-05-11T05:56:37;101461.03;;;17.81;nan
48862;BME280;34681;49.188;-0.374;2023-05-11T05:59:03;101453.22;;;17.77;nan
48862;BME280;34681;49.188;-0.374;2023-05-11T06:01:28;101461.34;;;17.78;nan
48862;BME280;34681;49.188;-0.374;2023-05-11T06:03:54;101457.88;;;17.84;nan
48862;BME280;34681;49.188;-0.374;2023-05-11T06:06:20;101451.78;;;18.05;nan
48862;BME280;34681;49.188;-0.374;2023-05-11T06:08:45;101462.94;;;18.20;nan
48862;BME280;34681;49.188;-0.374;2023-05-11T06:11:11;101457.63;;;18.49;nan
48862;BME280;34681;49.188;-0.374;2023-05-11T06:13:36;101465.59;;;18.84;nan
48862;BME280;34681;49.188;-0.374;2023-05-11T06:16:01;101468.00;;;19.09;nan
48862;BME280;34681;49.188;-0.374;2023-05-11T06:18:27;101466.16;;;19.25;nan
48862;BME280;34681;49.188;-0.374;2023-05-11T06:20:52;101464.38;;;19.09;nan
48862;BME280;34681;49.188;-0.374;2023-05-11T06:23:18;101466.47;;;19.07;nan
48862;BME280;34681;49.188;-0.374;2023-05-11T06:25:43;101463.34;;;18.87;nan
48862;BME280;34681;49.188;-0.374;2023-05-11T06:28:08;101464.00;;;18.89;nan
48862;BME280;34681;49.188;-0.374;2023-05-11T06:30:34;101460.00;;;18.92;nan
48862;BME280;34681;49.188;-0.374;2023-05-11T06:32:59;101467.53;;;19.06;nan
48862;BME280;34681;49.188;-0.374;2023-05-11T06:35:25;101462.16;;;18.82;nan
48862;BME280;34681;49.188;-0.374;2023-05-11T06:37:50;101468.63;;;18.97;nan
48862;BME280;34681;49.188;-0.374;2023-05-11T06:40:16;101473.31;;;18.96;nan
48862;BME280;34681;49.188;-0.374;2023-05-11T06:42:41;101470.97;;;19.08;nan
48862;BME280;34681;49.188;-0.374;2023-05-11T06:45:07;101472.69;;;19.09;nan
48862;BME280;34681;49.188;-0.374;2023-05-11T06:47:33;101476.66;;;19.15;nan
48862;BME280;34681;49.188;-0.374;2023-05-11T06:49:58;101478.38;;;19.16;nan
48862;BME280;34681;49.188;-0.374;2023-05-11T06:52:24;101479.75;;;19.20;nan
48862;BME280;34681;49.188;-0.374;2023-05-11T06:54:49;101480.75;;;19.42;nan
48862;BME280;34681;49.188;-0.374;2023-05-11T06:57:15;101480.59;;;19.96;nan
48862;BME280;34681;49.188;-0.374;2023-05-11T06:59:40;101475.13;;;20.32;nan
48862;BME280;34681;49.188;-0.374;2023-05-11T07:02:06;101476.25;;;21.03;nan
48862;BME280;34681;49.188;-0.374;2023-05-11T07:04:31;101481.75;;;21.61;nan
48862;BME280;34681;49.188;-0.374;2023-05-11T07:06:57;101486.56;;;22.01;nan
48862;BME280;34681;49.188;-0.374;2023-05-11T07:09:22;101483.97;;;21.44;nan
48862;BME280;34681;49.188;-0.374;2023-05-11T07:11:48;101478.81;;;21.04;nan
48862;BME280;34681;49.188;-0.374;2023-05-11T07:14:14;101486.66;;;20.94;nan
48862;BME280;34681;49.188;-0.374;2023-05-11T07:16:39;101483.41;;;20.76;nan
48862;BME280;34681;49.188;-0.374;2023-05-11T07:19:05;101481.91;;;20.59;nan
48862;BME280;34681;49.188;-0.374;2023-05-11T07:21:33;101484.47;;;21.54;nan
48862;BME280;34681;49.188;-0.374;2023-05-11T07:23:58;101486.50;;;21.95;nan
48862;BME280;34681;49.188;-0.374;2023-05-11T07:26:24;101482.50;;;21.76;nan
48862;BME280;34681;49.188;-0.374;2023-05-11T07:28:49;101483.47;;;21.19;nan
48862;BME280;34681;49.188;-0.374;2023-05-11T07:31:14;101492.91;;;23.19;nan
48862;BME280;34681;49.188;-0.374;2023-05-11T07:33:40;101503.72;;;23.62;nan
48862;BME280;34681;49.188;-0.374;2023-05-11T07:36:06;101497.09;;;27.40;nan
48862;BME280;34681;49.188;-0.374;2023-05-11T07:38:31;101504.38;;;31.39;nan
48862;BME280;34681;49.188;-0.374;2023-05-11T07:41:04;101501.94;;;34.49;nan
48862;BME280;34681;49.188;-0.374;2023-05-11T07:43:29;101503.72;;;35.54;nan
48862;BME280;34681;49.188;-0.374;2023-05-11T07:45:55;101503.13;;;36.49;nan
48862;BME280;34681;49.188;-0.374;2023-05-11T07:48:20;101495.16;;;33.48;nan
48862;BME280;34681;49.188;-0.374;2023-05-11T07:50:46;101499.75;;;30.06;nan
48862;BME280;34681;49.188;-0.374;2023-05-11T07:53:11;101488.38;;;31.22;nan
48862;BME280;34681;49.188;-0.374;2023-05-11T07:55:36;101494.03;;;33.74;nan
48862;BME280;34681;49.188;-0.374;2023-05-11T07:58:02;101493.47;;;34.08;nan
48862;BME280;34681;49.188;-0.374;2023-05-11T08:00:27;101488.41;;;33.95;nan
48862;BME280;34681;49.188;-0.374;2023-05-11T08:02:52;101490.88;;;31.46;nan
48862;BME280;34681;49.188;-0.374;2023-05-11T08:05:18;101486.97;;;32.21;nan
48862;BME280;34681;49.188;-0.374;2023-05-11T08:07:44;101485.81;;;30.00;nan
48862;BME280;34681;49.188;-0.374;2023-05-11T08:10:10;101492.00;;;29.80;nan
48862;BME280;34681;49.188;-0.374;2023-05-11T08:12:36;101478.28;;;29.09;nan
48862;BME280;34681;49.188;-0.374;2023-05-11T08:15:02;101478.28;;;27.40;nan
48862;BME280;34681;49.188;-0.374;2023-05-11T08:17:28;101475.84;;;26.29;nan
48862;BME280;34681;49.188;-0.374;2023-05-11T08:19:54;101471.22;;;25.48;nan
48862;BME280;34681;49.188;-0.374;2023-05-11T08:22:19;101470.94;;;25.56;nan
48862;BME280;34681;49.188;-0.374;2023-05-11T08:24:44;101466.28;;;26.37;nan
48862;BME280;34681;49.188;-0.374;2023-05-11T08:27:10;101468.56;;;26.46;nan
48862;BME280;34681;49.188;-0.374;2023-05-11T08:29:35;101471.81;;;27.40;nan
48862;BME280;34681;49.188;-0.374;2023-05-11T08:32:00;101476.13;;;29.00;nan
48862;BME280;34681;49.188;-0.374;2023-05-11T08:34:26;101481.34;;;27.51;nan
48862;BME280;34681;49.188;-0.374;2023-05-11T08:36:51;101480.28;;;25.50;nan
48862;BME280;34681;49.188;-0.374;2023-05-11T08:39:20;101481.13;;;24.03;nan
48862;BME280;34681;49.188;-0.374;2023-05-11T08:41:48;101480.94;;;22.70;nan
48862;BME280;34681;49.188;-0.374;2023-05-11T08:44:13;101487.59;;;21.94;nan
48862;BME280;34681;49.188;-0.374;2023-05-11T08:46:40;101490.56;;;21.21;nan
48862;BME280;34681;49.188;-0.374;2023-05-11T08:49:09;101494.41;;;20.48;nan
48862;BME280;34681;49.188;-0.374;2023-05-11T08:51:35;101497.47;;;20.24;nan
48862;BME280;34681;49.188;-0.374;2023-05-11T08:54:01;101501.97;;;20.25;nan
48862;BME280;34681;49.188;-0.374;2023-05-11T08:56:28;101503.41;;;20.20;nan
48862;BME280;34681;49.188;-0.374;2023-05-11T08:58:54;101498.91;;;20.19;nan
48862;BME280;34681;49.188;-0.374;2023-05-11T09:01:21;101495.34;;;20.26;nan
48862;BME280;34681;49.188;-0.374;2023-05-11T09:03:48;101489.31;;;20.37;nan
48862;BME280;34681;49.188;-0.374;2023-05-11T09:06:15;101487.97;;;20.62;nan
48862;BME280;34681;49.188;-0.374;2023-05-11T09:08:40;101486.34;;;20.89;nan
48862;BME280;34681;49.188;-0.374;2023-05-11T09:11:07;101485.19;;;21.20;nan
48862;BME280;34681;49.188;-0.374;2023-05-11T09:13:33;101491.84;;;21.40;nan
48862;BME280;34681;49.188;-0.374;2023-05-11T09:15:59;101487.59;;;21.44;nan
48862;BME280;34681;49.188;-0.374;2023-05-11T09:18:25;101492.13;;;21.73;nan
48862;BME280;34681;49.188;-0.374;2023-05-11T09:20:50;101486.50;;;21.95;nan
48862;BME280;34681;49.188;-0.374;2023-05-11T09:23:17;101482.81;;;22.15;nan
48862;BME280;34681;49.188;-0.374;2023-05-11T09:25:43;101476.06;;;22.38;nan
48862;BME280;34681;49.188;-0.374;2023-05-11T09:28:11;101477.22;;;22.57;nan
48862;BME280;34681;49.188;-0.374;2023-05-11T09:30:37;101482.41;;;22.66;nan
48862;BME280;34681;49.188;-0.374;2023-05-11T09:33:02;101485.53;;;22.91;nan
48862;BME280;34681;49.188;-0.374;2023-05-11T09:40:23;101493.56;;;24.91;nan
48862;BME280;34681;49.188;-0.374;2023-05-11T09:42:49;101487.38;;;25.77;nan
48862;BME280;34681;49.188;-0.374;2023-05-11T09:45:33;101485.03;;;26.18;nan
48862;BME280;34681;49.188;-0.374;2023-05-11T09:47:59;101493.25;;;25.94;nan
48862;BME280;34681;49.188;-0.374;2023-05-11T09:50:31;101490.19;;;25.77;nan
48862;BME280;34681;49.188;-0.374;2023-05-11T09:52:56;101483.16;;;25.37;nan
48862;BME280;34681;49.188;-0.374;2023-05-11T09:55:22;101477.84;;;25.54;nan
48862;BME280;34681;49.188;-0.374;2023-05-11T09:57:55;101478.97;;;25.21;nan
48862;BME280;34681;49.188;-0.374;2023-05-11T10:00:21;101475.59;;;24.61;nan
48862;BME280;34681;49.188;-0.374;2023-05-11T10:03:04;101472.13;;;24.01;nan
48862;BME280;34681;49.188;-0.374;2023-05-11T10:05:31;101470.84;;;23.77;nan
48862;BME280;34681;49.188;-0.374;2023-05-11T10:07:59;101471.06;;;23.75;nan
48862;BME280;34681;49.188;-0.374;2023-05-11T10:10:26;101465.91;;;23.72;nan
48862;BME280;34681;49.188;-0.374;2023-05-11T10:12:53;101469.34;;;23.61;nan
48862;BME280;34681;49.188;-0.374;2023-05-11T10:15:19;101458.41;;;22.72;nan
48862;BME280;34681;49.188;-0.374;2023-05-11T10:17:45;101454.16;;;21.94;nan
48862;BME280;34681;49.188;-0.374;2023-05-11T10:20:11;101451.28;;;20.52;nan
48862;BME280;34681;49.188;-0.374;2023-05-11T10:22:37;101456.84;;;19.93;nan
48862;BME280;34681;49.188;-0.374;2023-05-11T10:25:03;101456.94;;;19.47;nan
48862;BME280;34681;49.188;-0.374;2023-05-11T10:27:30;101452.91;;;20.32;nan
48862;BME280;34681;49.188;-0.374;2023-05-11T10:29:57;101453.66;;;21.34;nan
48862;BME280;34681;49.188;-0.374;2023-05-11T10:32:24;101453.22;;;21.58;nan
48862;BME280;34681;49.188;-0.374;2023-05-11T10:34:49;101455.22;;;22.27;nan
48862;BME280;34681;49.188;-0.374;2023-05-11T10:37:16;101454.13;;;22.69;nan
48862;BME280;34681;49.188;-0.374;2023-05-11T10:39:43;101456.31;;;22.33;nan
48862;BME280;34681;49.188;-0.374;2023-05-11T10:42:18;101452.84;;;21.62;nan
48862;BME280;34681;49.188;-0.374;2023-05-11T10:44:59;101452.06;;;21.03;nan
48862;BME280;34681;49.188;-0.374;2023-05-11T10:54:05;101448.91;;;23.34;nan
48862;BME280;34681;49.188;-0.374;2023-05-11T11:02:16;101447.81;;;23.09;nan
48862;BME280;34681;49.188;-0.374;2023-05-11T11:04:46;101437.25;;;22.91;nan
48862;BME280;34681;49.188;-0.374;2023-05-11T11:07:13;101440.38;;;22.75;nan
48862;BME280;34681;49.188;-0.374;2023-05-11T11:10:01;101437.66;;;22.33;nan
48862;BME280;34681;49.188;-0.374;2023-05-11T11:12:31;101438.06;;;21.61;nan
48862;BME280;34681;49.188;-0.374;2023-05-11T11:15:04;101435.25;;;21.89;nan
48862;BME280;34681;49.188;-0.374;2023-05-11T11:17:34;101441.56;;;22.04;nan
48862;BME280;34681;49.188;-0.374;2023-05-11T11:20:00;101438.00;;;22.17;nan
48862;BME280;34681;49.188;-0.374;2023-05-11T11:25:03;101439.88;;;21.47;nan
48862;BME280;34681;49.188;-0.374;2023-05-11T11:30:18;101429.63;;;22.10;nan
48862;BME280;34681;49.188;-0.374;2023-05-11T11:32:48;101432.03;;;22.20;nan
48862;BME280;34681;49.188;-0.374;2023-05-11T11:38:10;101427.44;;;21.43;nan
48862;BME280;34681;49.188;-0.374;2023-05-11T11:40:42;101425.53;;;21.50;nan
48862;BME280;34681;49.188;-0.374;2023-05-11T11:43:12;101417.78;;;21.74;nan
48862;BME280;34681;49.188;-0.374;2023-05-11T11:45:38;101423.13;;;21.69;nan
48862;BME280;34681;49.188;-0.374;2023-05-11T11:48:13;101423.34;;;22.02;nan
48862;BME280;34681;49.188;-0.374;2023-05-11T11:50:43;101420.72;;;21.66;nan
48862;BME280;34681;49.188;-0.374;2023-05-11T11:53:11;101424.91;;;21.76;nan
48862;BME280;34681;49.188;-0.374;2023-05-11T11:55:47;101423.19;;;21.82;nan
48862;BME280;34681;49.188;-0.374;2023-05-11T12:01:05;101419.84;;;22.28;nan
48862;BME280;34681;49.188;-0.374;2023-05-11T12:03:33;101423.09;;;22.38;nan
48862;BME280;34681;49.188;-0.374;2023-05-11T12:06:00;101414.31;;;21.65;nan
48862;BME280;34681;49.188;-0.374;2023-05-11T12:08:28;101419.38;;;21.55;nan
48862;BME280;34681;49.188;-0.374;2023-05-11T12:10:54;101418.78;;;21.94;nan
48862;BME280;34681;49.188;-0.374;2023-05-11T12:13:19;101425.44;;;20.94;nan
48862;BME280;34681;49.188;-0.374;2023-05-11T12:15:45;101415.72;;;20.33;nan
48862;BME280;34681;49.188;-0.374;2023-05-11T12:18:21;101423.22;;;20.17;nan
48862;BME280;34681;49.188;-0.374;2023-05-11T12:20:47;101419.00;;;19.77;nan
48862;BME280;34681;49.188;-0.374;2023-05-11T12:23:12;101414.94;;;20.54;nan
48862;BME280;34681;49.188;-0.374;2023-05-11T12:25:38;101412.13;;;20.03;nan
48862;BME280;34681;49.188;-0.374;2023-05-11T12:28:04;101415.38;;;19.62;nan
48862;BME280;34681;49.188;-0.374;2023-05-11T12:30:32;101410.84;;;19.61;nan
48862;BME280;34681;49.188;-0.374;2023-05-11T12:32:58;101419.31;;;19.82;nan
48862;BME280;34681;49.188;-0.374;2023-05-11T12:35:29;101413.94;;;19.96;nan
48862;BME280;34681;49.188;-0.374;2023-05-11T12:37:56;101411.75;;;19.61;nan
48862;BME280;34681;49.188;-0.374;2023-05-11T12:40:22;101410.13;;;19.29;nan
48862;BME280;34681;49.188;-0.374;2023-05-11T12:42:52;101407.13;;;19.83;nan
48862;BME280;34681;49.188;-0.374;2023-05-11T12:45:18;101408.47;;;19.73;nan
48862;BME280;34681;49.188;-0.374;2023-05-11T12:47:46;101407.13;;;19.83;nan
48862;BME280;34681;49.188;-0.374;2023-05-11T12:50:12;101413.03;;;20.25;nan
48862;BME280;34681;49.188;-0.374;2023-05-11T12:52:38;101412.06;;;21.04;nan
48862;BME280;34681;49.188;-0.374;2023-05-11T12:55:03;101415.25;;;20.80;nan
48862;BME280;34681;49.188;-0.374;2023-05-11T12:57:29;101409.09;;;20.48;nan
48862;BME280;34681;49.188;-0.374;2023-05-11T13:02:32;101411.84;;;20.63;nan
48862;BME280;34681;49.188;-0.374;2023-05-11T13:04:58;101411.44;;;21.09;nan
48862;BME280;34681;49.188;-0.374;2023-05-11T13:07:25;101411.31;;;21.17;nan
48862;BME280;34681;49.188;-0.374;2023-05-11T13:09:55;101410.75;;;20.79;nan
48862;BME280;34681;49.188;-0.374;2023-05-11T13:12:22;101414.22;;;20.66;nan
48862;BME280;34681;49.188;-0.374;2023-05-11T13:14:50;101413.59;;;21.28;nan
48862;BME280;34681;49.188;-0.374;2023-05-11T13:17:31;101421.03;;;21.77;nan
48862;BME280;34681;49.188;-0.374;2023-05-11T13:20:23;101424.31;;;22.22;nan
48862;BME280;34681;49.188;-0.374;2023-05-11T13:22:50;101418.31;;;21.91;nan
48862;BME280;34681;49.188;-0.374;2023-05-11T13:25:26;101416.53;;;21.48;nan
48862;BME280;34681;49.188;-0.374;2023-05-11T13:27:51;101422.50;;;21.24;nan
48862;BME280;34681;49.188;-0.374;2023-05-11T13:30:17;101412.78;;;20.92;nan
48862;BME280;34681;49.188;-0.374;2023-05-11T13:32:42;101411.25;;;20.89;nan
48862;BME280;34681;49.188;-0.374;2023-05-11T13:35:07;101414.94;;;21.18;nan
48862;BME280;34681;49.188;-0.374;2023-05-11T13:37:33;101416.09;;;21.23;nan
48862;BME280;34681;49.188;-0.374;2023-05-11T13:39:58;101411.16;;;21.25;nan